Time;durP1;ratioP1;P1;durP2;ratioP2;P2;SDS_P1;SDS_P2;PMS_P1;PMS_P2;Temp;Humidity;BMP_temperature;BMP_pressure;BME280_temperature;BME280_humidity;BME280_pressure;Samples;Min_cycle;Max_cycle;Signal;HPM_P1;HPM_P2
2023/12/25 00:01:29;;;;;;;0.60;0.60;;;;;;;12.04;100.00;100250.00;4971688;28;20810;-84
2023/12/25 00:03:55;;;;;;;1.30;0.65;;;;;;;12.03;100.00;100252.88;4988784;28;20031;-83
2023/12/25 00:06:20;;;;;;;1.17;0.70;;;;;;;12.04;100.00;100250.00;4971913;28;20477;-84
2023/12/25 00:08:48;;;;;;;3.95;0.77;;;;;;;12.16;100.00;100250.69;4968482;28;20035;-84
2023/12/25 00:11:14;;;;;;;2.25;0.70;;;;;;;12.11;100.00;100253.00;4970834;28;20034;-84
2023/12/25 00:13:40;;;;;;;3.75;0.60;;;;;;;12.04;100.00;100250.00;4955718;28;20461;-84
2023/12/25 00:16:05;;;;;;;1.30;0.50;;;;;;;12.10;100.00;100249.41;4971947;28;20106;-84
2023/12/25 00:18:30;;;;;;;1.70;0.60;;;;;;;12.06;100.00;100247.09;4983662;28;20027;-84
2023/12/25 00:20:56;;;;;;;1.95;0.63;;;;;;;12.10;100.00;100234.81;4988060;28;20437;-84
2023/12/25 00:23:21;;;;;;;4.07;0.65;;;;;;;12.10;100.00;100259.50;4971542;28;20038;-83
2023/12/25 00:25:47;;;;;;;2.10;0.55;;;;;;;12.01;100.00;100241.19;4955495;28;20023;-84
2023/12/25 00:28:12;;;;;;;6.00;0.50;;;;;;;12.01;100.00;100242.03;4955754;28;20042;-84
2023/12/25 00:30:37;;;;;;;5.97;1.13;;;;;;;12.02;100.00;100229.19;4955611;28;20027;-85
2023/12/25 00:33:03;;;;;;;3.45;0.65;;;;;;;11.98;100.00;100234.09;4964011;28;20539;-85
2023/12/25 00:35:28;;;;;;;3.63;0.77;;;;;;;12.02;100.00;100220.94;4981312;28;20035;-85
2023/12/25 00:37:54;;;;;;;2.75;0.43;;;;;;;12.07;100.00;100229.63;4955477;28;20023;-84
2023/12/25 00:40:19;;;;;;;4.18;0.50;;;;;;;12.00;100.00;100240.31;4987232;28;20534;-83
2023/12/25 00:42:44;;;;;;;2.13;0.57;;;;;;;12.03;100.00;100236.41;4971703;28;20041;-84
2023/12/25 00:45:10;;;;;;;0.88;0.47;;;;;;;11.96;100.00;100233.38;4988673;28;20030;-84
2023/12/25 00:47:35;;;;;;;0.98;0.47;;;;;;;11.99;100.00;100227.63;4955641;28;20480;-84
2023/12/25 00:50:02;;;;;;;5.45;0.60;;;;;;;12.00;100.00;100228.47;4955303;28;20035;-83
2023/12/25 00:52:27;;;;;;;1.98;0.68;;;;;;;12.01;100.00;100230.22;4966237;28;20049;-84
2023/12/25 00:54:53;;;;;;;5.45;0.60;;;;;;;12.05;100.00;100238.00;4937730;28;20485;-84
2023/12/25 00:57:18;;;;;;;2.65;0.55;;;;;;;11.94;100.00;100247.25;4971594;28;20560;-84
2023/12/25 00:59:43;;;;;;;1.30;0.60;;;;;;;12.02;100.00;100246.53;4970761;28;20085;-84
2023/12/25 01:02:09;;;;;;;1.40;0.60;;;;;;;11.93;100.00;100256.47;4968469;28;20024;-84
2023/12/25 01:04:34;;;;;;;3.90;0.63;;;;;;;11.95;100.00;100245.38;4961157;28;20030;-83
2023/12/25 01:07:00;;;;;;;3.90;0.70;;;;;;;12.05;100.00;100251.72;4987498;28;20484;-83
2023/12/25 01:09:25;;;;;;;2.67;0.70;;;;;;;12.02;100.00;100263.00;4955988;28;20027;-84
2023/12/25 01:11:51;;;;;;;1.45;0.70;;;;;;;11.93;100.00;100263.84;4973452;28;20484;-83
2023/12/25 01:14:17;;;;;;;4.70;0.70;;;;;;;11.92;100.00;100270.34;4958848;28;20449;-84
2023/12/25 01:16:42;;;;;;;2.40;0.60;;;;;;;11.97;100.00;100262.56;4974682;28;20476;-84
2023/12/25 01:19:08;;;;;;;1.40;0.73;;;;;;;11.89;100.00;100284.34;4972652;28;20031;-84
2023/12/25 01:21:34;;;;;;;2.63;0.77;;;;;;;11.95;100.00;100270.06;4974330;28;20041;-84
2023/12/25 01:23:59;;;;;;;1.42;0.80;;;;;;;11.99;100.00;100267.91;4968104;28;20022;-84
2023/12/25 01:26:25;;;;;;;2.65;0.60;;;;;;;12.05;100.00;100259.97;4965214;28;20118;-84
2023/12/25 01:28:51;;;;;;;4.28;1.27;;;;;;;12.02;100.00;100264.84;4985338;28;20038;-84
2023/12/25 01:31:17;;;;;;;1.80;0.80;;;;;;;12.02;100.00;100284.94;4988436;28;20507;-84
2023/12/25 01:33:42;;;;;;;2.65;0.90;;;;;;;12.04;100.00;100274.69;4957675;28;20094;-84
2023/12/25 01:36:07;;;;;;;2.88;0.80;;;;;;;11.99;100.00;100277.00;4955573;28;20042;-85
2023/12/25 01:38:33;;;;;;;2.22;0.70;;;;;;;11.98;100.00;100290.84;4990511;28;20026;-85
2023/12/25 01:40:58;;;;;;;2.25;0.90;;;;;;;11.97;100.00;100280.88;4990399;28;20031;-84
2023/12/25 01:43:24;;;;;;;3.88;0.70;;;;;;;12.03;100.00;100283.06;4990255;28;20377;-84
2023/12/25 01:45:49;;;;;;;0.80;0.70;;;;;;;12.02;100.00;100289.53;4990737;28;20027;-84
2023/12/25 01:48:15;;;;;;;1.10;0.70;;;;;;;12.08;100.00;100294.47;4961303;28;20485;-84
2023/12/25 01:50:40;;;;;;;0.98;0.68;;;;;;;12.03;100.00;100285.81;4970063;28;20039;-84
2023/12/25 01:53:06;;;;;;;2.42;0.80;;;;;;;12.00;100.00;100297.06;4971943;28;20023;-84
2023/12/25 01:55:31;;;;;;;2.35;0.60;;;;;;;12.02;100.00;100298.66;4969029;28;20038;-83
2023/12/25 01:57:57;;;;;;;2.47;0.73;;;;;;;11.95;100.00;100295.63;4974266;28;20113;-84
2023/12/25 02:00:23;;;;;;;3.15;1.13;;;;;;;12.00;100.00;100297.91;4957959;28;20027;-84
2023/12/25 02:02:49;;;;;;;4.90;0.80;;;;;;;11.97;100.00;100292.75;4991331;28;20395;-84
2023/12/25 02:05:15;;;;;;;2.10;0.82;;;;;;;11.95;100.00;100294.75;4957668;28;20408;-84
2023/12/25 02:07:42;;;;;;;1.02;0.60;;;;;;;11.91;100.00;100288.69;4957749;28;20042;-84
2023/12/25 02:10:09;;;;;;;1.90;0.70;;;;;;;12.01;100.00;100287.84;4987742;28;20078;-83
2023/12/25 02:12:35;;;;;;;1.95;0.70;;;;;;;11.97;100.00;100291.84;4967297;28;20031;-85
2023/12/25 02:15:01;;;;;;;1.38;0.70;;;;;;;11.95;100.00;100283.78;4988483;28;20035;-84
2023/12/25 02:17:27;;;;;;;1.40;0.75;;;;;;;12.01;100.00;100287.84;4986992;28;20039;-84
2023/12/25 02:19:53;;;;;;;2.67;0.80;;;;;;;11.98;100.00;100301.84;4988836;28;20015;-84
2023/12/25 02:22:19;;;;;;;1.02;0.60;;;;;;;12.06;100.00;100296.50;4987928;28;20062;-84
2023/12/25 02:25:12;;;;;;;2.42;0.60;;;;;;;12.06;100.00;100296.50;4988208;28;20054;-84
2023/12/25 02:27:37;;;;;;;1.42;0.75;;;;;;;12.02;100.00;100292.28;4970865;28;20019;-84
2023/12/25 02:30:03;;;;;;;2.13;0.80;;;;;;;12.00;100.00;100305.28;4989521;28;20078;-84
2023/12/25 02:32:32;;;;;;;2.25;0.82;;;;;;;12.02;100.00;100301.41;4974714;28;20054;-84
2023/12/25 02:34:57;;;;;;;4.53;0.80;;;;;;;12.08;100.00;100300.81;4989565;28;20027;-84
2023/12/25 02:37:23;;;;;;;2.35;0.90;;;;;;;12.06;100.00;100305.56;4981519;28;20027;-84
2023/12/25 02:39:48;;;;;;;1.48;0.90;;;;;;;12.03;100.00;100308.59;4985056;28;20031;-83
2023/12/25 02:42:14;;;;;;;2.45;1.00;;;;;;;12.09;100.00;100324.50;4954190;28;20038;-84
2023/12/25 02:44:39;;;;;;;3.67;0.93;;;;;;;12.11;100.00;100332.59;4956808;28;20043;-84
2023/12/25 02:47:05;;;;;;;1.77;0.90;;;;;;;12.09;100.00;100324.50;4973233;28;20022;-84
2023/12/25 02:49:30;;;;;;;1.90;0.90;;;;;;;12.26;100.00;100325.63;4984447;28;20121;-84
2023/12/25 02:51:55;;;;;;;2.88;1.00;;;;;;;12.19;100.00;100329.13;4988020;28;20031;-84
2023/12/25 02:54:21;;;;;;;3.35;0.90;;;;;;;12.16;100.00;100327.53;4988107;28;20031;-84
2023/12/25 02:56:46;;;;;;;1.17;1.00;;;;;;;12.18;100.00;100344.72;4944780;28;20026;-84
2023/12/25 02:59:11;;;;;;;2.25;0.90;;;;;;;12.21;100.00;100335.34;4968670;28;20477;-84
2023/12/25 03:01:38;;;;;;;1.73;1.02;;;;;;;12.20;100.00;100337.22;4955831;28;20039;-84
2023/12/25 03:04:03;;;;;;;1.20;0.98;;;;;;;12.19;100.00;100338.22;4940787;28;20037;-84
2023/12/25 03:06:29;;;;;;;2.85;1.10;;;;;;;12.28;100.00;100350.19;4987325;28;20449;-84
2023/12/25 03:08:54;;;;;;;1.40;1.00;;;;;;;12.25;100.00;100354.13;4972433;28;20034;-84
2023/12/25 03:11:19;;;;;;;1.52;0.88;;;;;;;12.28;100.00;100353.84;4970719;28;20038;-84
2023/12/25 03:13:45;;;;;;;2.90;0.80;;;;;;;12.22;100.00;100339.81;4972398;28;20455;-85
2023/12/25 03:16:10;;;;;;;0.95;0.73;;;;;;;12.23;100.00;100336.06;4994364;28;20085;-84
2023/12/25 03:18:36;;;;;;;0.85;0.70;;;;;;;12.30;100.00;100338.06;4970398;28;20560;-84
2023/12/25 03:21:01;;;;;;;2.05;0.65;;;;;;;12.16;100.00;100334.91;4938043;28;20039;-84
2023/12/25 03:23:26;;;;;;;2.53;0.82;;;;;;;12.21;100.00;100341.69;4972522;28;20114;-84
2023/12/25 03:25:52;;;;;;;1.88;0.68;;;;;;;12.21;100.00;100338.94;4954088;28;20019;-84
2023/12/25 03:28:17;;;;;;;2.13;0.70;;;;;;;12.22;100.00;100348.91;4972680;28;20034;-85
2023/12/25 03:30:43;;;;;;;1.42;0.60;;;;;;;12.18;100.00;100338.38;4955508;28;20022;-84
2023/12/25 03:33:08;;;;;;;2.20;0.93;;;;;;;12.20;100.00;100330.84;4970914;28;20473;-84
2023/12/25 03:35:34;;;;;;;4.55;0.75;;;;;;;12.09;100.00;100327.25;4954536;28;20026;-84
2023/12/25 03:37:59;;;;;;;4.00;0.70;;;;;;;12.13;100.00;100341.53;4965694;28;20451;-85
2023/12/25 03:40:25;;;;;;;1.92;0.70;;;;;;;12.24;100.00;100333.16;4969923;28;20081;-84
2023/12/25 03:42:51;;;;;;;3.08;0.60;;;;;;;12.20;100.00;100336.34;4972346;28;20033;-84
2023/12/25 03:45:17;;;;;;;0.77;0.77;;;;;;;12.22;100.00;100334.34;4986303;28;20053;-84
2023/12/25 03:47:42;;;;;;;1.00;0.52;;;;;;;12.19;100.00;100340.09;4972268;28;20477;-84
2023/12/25 03:50:08;;;;;;;2.15;0.60;;;;;;;12.16;100.00;100348.63;4950899;28;20035;-84
2023/12/25 03:52:34;;;;;;;1.15;0.52;;;;;;;12.11;100.00;100341.69;4954156;28;20807;-84
2023/12/25 03:55:00;;;;;;;2.00;0.70;;;;;;;12.27;100.00;100357.56;4992585;28;20027;-84
2023/12/25 03:57:25;;;;;;;0.60;0.60;;;;;;;12.19;100.00;100360.19;4988156;28;20047;-84
2023/12/25 03:59:50;;;;;;;3.53;0.82;;;;;;;12.25;100.00;100367.00;4972093;28;20044;-84
2023/12/25 04:02:16;;;;;;;2.33;0.80;;;;;;;12.22;100.00;100368.13;4989118;28;20040;-85
2023/12/25 04:04:41;;;;;;;4.57;0.60;;;;;;;12.17;100.00;100372.31;4987988;28;20027;-84
2023/12/25 04:07:07;;;;;;;3.00;0.80;;;;;;;12.09;100.00;100376.63;4951486;28;20046;-84
2023/12/25 04:09:32;;;;;;;1.45;0.70;;;;;;;12.07;100.00;100370.44;4969918;28;20026;-85
2023/12/25 04:11:58;;;;;;;1.42;0.85;;;;;;;12.07;100.00;100375.06;4942937;28;20027;-84
2023/12/25 04:14:23;;;;;;;4.10;0.95;;;;;;;12.04;100.00;100367.97;4982305;28;20401;-84
2023/12/25 04:16:48;;;;;;;0.63;0.63;;;;;;;12.07;100.00;100359.47;4950107;28;20023;-84
2023/12/25 04:19:14;;;;;;;4.85;1.70;;;;;;;12.06;100.00;100357.72;4982645;28;20408;-84
2023/12/25 04:21:39;;;;;;;2.38;0.82;;;;;;;12.06;100.00;100357.72;4971513;28;20031;-84
2023/12/25 04:24:05;;;;;;;3.13;0.90;;;;;;;12.10;100.00;100361.03;4951721;28;20034;-85
2023/12/25 04:26:30;;;;;;;1.50;0.85;;;;;;;12.01;100.00;100337.22;4987094;28;20113;-84
2023/12/25 04:28:56;;;;;;;2.97;0.70;;;;;;;12.00;100.00;100347.31;4965222;28;20023;-85
2023/12/25 04:31:22;;;;;;;4.15;0.95;;;;;;;12.00;100.00;100335.47;4971409;28;20118;-85
2023/12/25 04:33:47;;;;;;;1.48;0.90;;;;;;;11.95;100.00;100342.28;4981467;28;20022;-84
2023/12/25 04:36:13;;;;;;;1.13;0.90;;;;;;;11.87;100.00;100331.13;4971641;28;20045;-84
2023/12/25 04:38:39;;;;;;;0.95;0.80;;;;;;;11.91;100.00;100323.47;4942626;28;20031;-84
2023/12/25 04:41:05;;;;;;;1.98;0.90;;;;;;;11.87;100.00;100325.63;4985801;28;20426;-84
2023/12/25 04:43:30;;;;;;;6.55;0.73;;;;;;;11.93;100.00;100324.22;4967322;28;20173;-84
2023/12/25 04:45:56;;;;;;;1.75;0.90;;;;;;;11.98;100.00;100326.53;4974319;28;20374;-85
2023/12/25 04:48:21;;;;;;;1.05;0.73;;;;;;;12.05;100.00;100333.16;4976064;28;20035;-84
2023/12/25 04:50:47;;;;;;;2.17;0.80;;;;;;;12.02;100.00;100338.94;4990987;28;20038;-84
2023/12/25 04:53:13;;;;;;;3.00;0.80;;;;;;;12.04;100.00;100331.44;4991501;28;20026;-84
2023/12/25 04:55:39;;;;;;;0.70;0.70;;;;;;;12.06;100.00;100333.00;4975194;28;20050;-84
2023/12/25 04:58:05;;;;;;;1.33;0.80;;;;;;;12.04;100.00;100323.22;4976005;28;20124;-84
2023/12/25 05:00:32;;;;;;;6.95;0.60;;;;;;;12.06;100.00;100326.69;4990970;28;20109;-85
2023/12/25 05:02:58;;;;;;;0.60;0.60;;;;;;;12.14;100.00;100321.31;4968920;28;20030;-84
2023/12/25 05:05:23;;;;;;;0.90;0.60;;;;;;;12.14;100.00;100315.84;4991378;28;20037;-83
2023/12/25 05:07:48;;;;;;;0.82;0.43;;;;;;;12.07;100.00;100318.28;4952946;28;20117;-84
2023/12/25 05:10:14;;;;;;;1.38;0.50;;;;;;;12.01;100.00;100315.28;4990344;28;20117;-84
2023/12/25 05:12:39;;;;;;;0.50;0.50;;;;;;;11.95;100.00;100316.69;4975061;28;20497;-84
2023/12/25 05:15:06;;;;;;;0.47;0.47;;;;;;;11.95;100.00;100314.84;4963938;28;20082;-84
2023/12/25 05:17:32;;;;;;;1.77;0.50;;;;;;;11.94;100.00;100309.50;4966868;28;20011;-83
2023/12/25 05:19:57;;;;;;;1.90;0.47;;;;;;;11.99;100.00;100325.53;4972254;28;20494;-85
2023/12/25 05:22:22;;;;;;;0.40;0.40;;;;;;;11.91;100.00;100305.16;4975755;28;20041;-84
2023/12/25 05:24:48;;;;;;;0.40;0.40;;;;;;;11.85;100.00;100310.31;4958571;28;20030;-85
2023/12/25 05:27:13;;;;;;;0.80;0.40;;;;;;;11.90;100.00;100318.97;4942405;28;20030;-84
2023/12/25 05:29:39;;;;;;;0.85;0.40;;;;;;;11.86;100.00;100325.78;4974415;28;20031;-84
2023/12/25 05:32:04;;;;;;;0.22;0.22;;;;;;;11.82;100.00;100316.94;4967967;28;20027;-84
2023/12/25 05:34:30;;;;;;;0.40;0.30;;;;;;;11.82;100.00;100314.19;4955541;28;20029;-84
2023/12/25 05:36:55;;;;;;;0.90;0.40;;;;;;;11.81;100.00;100317.09;4973794;28;20023;-84
2023/12/25 05:39:20;;;;;;;2.47;0.30;;;;;;;11.82;100.00;100311.44;4959625;28;20023;-84
2023/12/25 05:41:46;;;;;;;0.40;0.30;;;;;;;11.74;100.00;100300.31;4990505;28;20054;-84
2023/12/25 05:44:11;;;;;;;1.25;0.30;;;;;;;11.77;100.00;100300.94;4974485;28;20575;-84
2023/12/25 05:46:37;;;;;;;0.85;0.30;;;;;;;11.76;100.00;100295.59;4976260;28;20440;-84
2023/12/25 05:49:03;;;;;;;2.60;0.40;;;;;;;11.77;100.00;100300.94;4983150;28;20411;-84
2023/12/25 05:51:29;;;;;;;1.10;0.50;;;;;;;11.82;100.00;100302.38;4974208;28;20026;-83
2023/12/25 05:53:55;;;;;;;1.17;0.30;;;;;;;11.83;100.00;100312.34;4989582;28;20098;-84
2023/12/25 05:56:20;;;;;;;0.30;0.30;;;;;;;11.76;100.00;100303.81;4973896;28;20113;-84
2023/12/25 05:58:46;;;;;;;1.00;0.35;;;;;;;11.75;100.00;100316.63;4975700;28;20030;-84
2023/12/25 06:01:13;;;;;;;0.45;0.40;;;;;;;11.74;100.00;100314.03;4989255;28;20054;-84
2023/12/25 06:03:41;;;;;;;1.15;0.40;;;;;;;11.80;100.00;100320.84;4978830;28;20480;-84
2023/12/25 06:06:07;;;;;;;0.30;0.30;;;;;;;11.83;100.00;100309.59;4971679;28;20026;-84
2023/12/25 06:08:33;;;;;;;0.35;0.35;;;;;;;11.90;100.00;100318.97;4989849;28;20149;-83
2023/12/25 06:10:58;;;;;;;0.60;0.40;;;;;;;11.88;100.00;100319.13;4972245;28;20114;-84
2023/12/25 06:13:24;;;;;;;0.30;0.30;;;;;;;11.86;100.00;100323.03;4951855;28;20512;-84
2023/12/25 06:15:50;;;;;;;1.42;0.43;;;;;;;11.85;100.00;100324.88;4989461;28;20023;-84
2023/12/25 06:18:15;;;;;;;2.75;0.32;;;;;;;11.83;100.00;100326.91;4989898;28;20480;-84
2023/12/25 06:20:41;;;;;;;0.35;0.35;;;;;;;11.79;100.00;100314.50;4973016;28;20035;-84
2023/12/25 06:23:06;;;;;;;0.90;0.50;;;;;;;11.78;100.00;100307.28;4965885;28;20110;-84
2023/12/25 06:25:32;;;;;;;1.55;0.50;;;;;;;11.76;100.00;100317.53;4989386;28;20117;-84
2023/12/25 06:27:57;;;;;;;0.40;0.40;;;;;;;11.70;100.00;100310.72;4973319;28;20022;-84
2023/12/25 06:30:22;;;;;;;0.40;0.40;;;;;;;11.72;100.00;100308.72;4973604;28;20030;-84
2023/12/25 06:32:48;;;;;;;0.40;0.40;;;;;;;11.69;100.00;100313.59;4973366;28;20054;-84
2023/12/25 06:35:14;;;;;;;0.50;0.40;;;;;;;11.68;100.00;100310.00;4971032;28;20119;-84
2023/12/25 06:37:39;;;;;;;1.60;0.60;;;;;;;11.67;100.00;100312.88;4968927;28;20109;-84
2023/12/25 06:40:05;;;;;;;0.40;0.40;;;;;;;11.65;100.00;100313.03;4949713;28;20121;-84
2023/12/25 06:42:31;;;;;;;0.88;0.50;;;;;;;11.63;100.00;100309.56;4973183;28;20058;-84
2023/12/25 06:44:57;;;;;;;2.75;0.50;;;;;;;11.64;100.00;100315.91;4957171;28;20058;-84
2023/12/25 06:47:22;;;;;;;0.40;0.40;;;;;;;11.68;100.00;100309.16;4994813;28;20023;-84
2023/12/25 06:49:47;;;;;;;0.40;0.40;;;;;;;11.64;100.00;100325.03;4974997;28;20612;-85
2023/12/25 06:52:13;;;;;;;0.70;0.50;;;;;;;11.67;100.00;100324.72;4989269;28;20476;-84
2023/12/25 06:54:38;;;;;;;0.77;0.40;;;;;;;11.70;100.00;100323.56;4988307;28;20039;-84
2023/12/25 06:57:04;;;;;;;0.40;0.40;;;;;;;11.67;100.00;100321.13;4972549;28;20414;-84
2023/12/25 06:59:30;;;;;;;0.50;0.50;;;;;;;11.67;100.00;100321.13;4956760;28;20033;-84
2023/12/25 07:01:55;;;;;;;0.50;0.43;;;;;;;11.63;100.00;100325.16;4975619;28;20395;-84
2023/12/25 07:04:22;;;;;;;1.80;0.50;;;;;;;11.66;100.00;100331.22;4956661;28;20031;-85
2023/12/25 07:06:47;;;;;;;0.50;0.50;;;;;;;11.66;100.00;100319.38;4987962;28;20520;-84
2023/12/25 07:09:16;;;;;;;0.60;0.60;;;;;;;11.67;100.00;100326.59;4972250;28;20030;-83
2023/12/25 07:11:42;;;;;;;0.60;0.45;;;;;;;11.64;100.00;100321.41;4956649;28;20100;-84
2023/12/25 07:14:08;;;;;;;2.25;0.50;;;;;;;11.62;100.00;100324.28;4958956;28;20125;-84
2023/12/25 07:16:33;;;;;;;0.40;0.40;;;;;;;11.64;100.00;100307.69;4972049;28;20042;-84
2023/12/25 07:18:59;;;;;;;0.60;0.60;;;;;;;11.66;100.00;100313.88;4989003;28;20022;-84
2023/12/25 07:21:24;;;;;;;0.40;0.40;;;;;;;11.62;100.00;100316.06;4960286;28;20058;-84
2023/12/25 07:23:50;;;;;;;0.60;0.52;;;;;;;11.58;100.00;100314.63;4958266;28;20036;-83
2023/12/25 07:26:17;;;;;;;0.60;0.60;;;;;;;11.66;100.00;100335.81;4988304;28;20122;-84
2023/12/25 07:28:43;;;;;;;1.67;0.80;;;;;;;11.65;100.00;100331.38;4975524;28;20109;-84
2023/12/25 07:31:08;;;;;;;2.08;0.60;;;;;;;11.67;100.00;100334.81;4969157;28;20062;-84
2023/12/25 07:33:34;;;;;;;1.50;0.77;;;;;;;11.64;100.00;100325.03;4967578;28;20035;-84
2023/12/25 07:36:00;;;;;;;1.88;0.90;;;;;;;11.69;100.00;100341.91;4971939;28;20062;-84
2023/12/25 07:38:25;;;;;;;1.55;1.10;;;;;;;11.66;100.00;100338.56;4988373;28;20121;-84
2023/12/25 07:40:50;;;;;;;1.55;0.90;;;;;;;11.67;100.00;100345.78;4988537;28;20042;-84
2023/12/25 07:43:16;;;;;;;2.53;1.00;;;;;;;11.72;100.00;100351.72;4976841;28;20479;-84
2023/12/25 07:45:41;;;;;;;0.85;0.85;;;;;;;11.79;100.00;100358.38;4971942;28;20072;-84
2023/12/25 07:48:07;;;;;;;1.00;0.90;;;;;;;11.78;100.00;100362.13;4956305;28;20050;-84
2023/12/25 07:50:33;;;;;;;1.05;0.88;;;;;;;11.77;100.00;100379.59;4988159;28;20503;-84
2023/12/25 07:52:58;;;;;;;0.88;0.80;;;;;;;11.82;100.00;100371.78;4988206;28;20022;-84
2023/12/25 07:55:24;;;;;;;0.80;0.80;;;;;;;11.78;100.00;100375.84;4972387;28;20503;-84
2023/12/25 07:57:49;;;;;;;0.80;0.80;;;;;;;11.74;100.00;100386.25;4954303;28;20031;-84
2023/12/25 08:00:15;;;;;;;0.60;0.60;;;;;;;11.73;100.00;100389.97;4967445;28;20027;-85
2023/12/25 08:02:40;;;;;;;0.98;0.85;;;;;;;11.72;100.00;100387.38;4991918;28;20038;-85
2023/12/25 08:05:06;;;;;;;1.55;0.90;;;;;;;11.74;100.00;100386.25;4951940;28;20448;-85
2023/12/25 08:07:32;;;;;;;1.85;1.00;;;;;;;11.69;100.00;100394.03;4960506;28;20023;-84
2023/12/25 08:09:57;;;;;;;1.55;0.93;;;;;;;11.69;100.00;100391.28;4972006;28;20026;-85
2023/12/25 08:12:23;;;;;;;1.35;0.90;;;;;;;11.68;100.00;100396.91;4972255;28;20050;-84
2023/12/25 08:14:48;;;;;;;0.77;0.77;;;;;;;11.67;100.00;100400.63;4956293;28;20035;-84
2023/12/25 08:17:13;;;;;;;0.85;0.85;;;;;;;11.70;100.00;100405.84;4972629;28;20113;-84
2023/12/25 08:19:40;;;;;;;2.38;0.77;;;;;;;11.67;100.00;100400.63;4975953;28;20022;-85
2023/12/25 08:22:05;;;;;;;0.95;0.90;;;;;;;11.66;100.00;100407.13;4974938;28;20034;-85
2023/12/25 08:24:30;;;;;;;0.98;0.80;;;;;;;11.64;100.00;100417.38;4975401;28;20042;-85
2023/12/25 08:26:56;;;;;;;2.65;0.80;;;;;;;11.64;100.00;100415.53;4966243;28;20073;-84
2023/12/25 08:29:21;;;;;;;2.15;0.80;;;;;;;11.60;100.00;100422.28;4959252;28;20405;-84
2023/12/25 08:31:47;;;;;;;1.17;0.88;;;;;;;11.69;100.00;100417.81;4958608;28;20030;-84
2023/12/25 08:34:12;;;;;;;0.85;0.85;;;;;;;11.71;100.00;100413.94;4959425;28;20038;-85
2023/12/25 08:36:38;;;;;;;0.95;0.95;;;;;;;11.74;100.00;100423.75;4958197;28;20037;-84
2023/12/25 08:39:04;;;;;;;1.23;1.05;;;;;;;11.65;100.00;100424.59;4958890;28;20027;-84
2023/12/25 08:41:30;;;;;;;0.80;0.73;;;;;;;11.68;100.00;100430.66;4978339;28;20084;-84
2023/12/25 08:43:55;;;;;;;0.80;0.80;;;;;;;11.63;100.00;100449.41;4975284;28;20030;-83
2023/12/25 08:46:21;;;;;;;0.52;0.52;;;;;;;11.27;100.00;100456.34;4975107;28;20515;-83
2023/12/25 08:48:47;;;;;;;0.80;0.80;;;;;;;11.10;100.00;100455.06;4977030;28;20023;-82
2023/12/25 08:51:13;;;;;;;1.13;0.60;;;;;;;10.96;100.00;100450.81;4974746;28;20031;-83
2023/12/25 08:53:38;;;;;;;0.73;0.70;;;;;;;11.00;100.00;100446.78;4975420;28;20037;-83
2023/12/25 08:56:04;;;;;;;2.00;0.65;;;;;;;10.79;100.00;100444.03;4973307;28;20030;-83
2023/12/25 08:58:30;;;;;;;0.90;0.70;;;;;;;10.78;100.00;100456.00;4986250;28;20111;-83
2023/12/25 09:00:55;;;;;;;0.82;0.70;;;;;;;10.78;100.00;100448.66;4956113;28;20106;-83
2023/12/25 09:03:21;;;;;;;0.65;0.65;;;;;;;10.78;100.00;100458.75;4991511;28;20491;-84
2023/12/25 09:05:46;;;;;;;1.95;0.75;;;;;;;10.74;100.00;100462.75;4989980;28;20392;-83
2023/12/25 09:08:12;;;;;;;0.93;0.80;;;;;;;10.82;100.00;100468.44;4975241;28;20089;-85
2023/12/25 09:10:37;;;;;;;2.60;1.23;;;;;;;10.78;100.00;100466.97;4974235;28;20482;-84
2023/12/25 09:13:03;;;;;;;3.72;1.58;;;;;;;10.73;100.00;100459.16;4974631;28;20031;-84
2023/12/25 09:15:29;;;;;;;2.65;1.38;;;;;;;10.72;100.00;100454.66;4979307;28;20488;-84
2023/12/25 09:17:55;;;;;;;1.92;1.52;;;;;;;10.74;100.00;100440.84;4974236;28;20070;-84
2023/12/25 09:20:20;;;;;;;1.85;1.30;;;;;;;10.75;100.00;100454.41;4990059;28;20022;-84
2023/12/25 09:22:46;;;;;;;1.38;1.27;;;;;;;10.76;100.00;100447.94;4960856;28;20111;-84
2023/12/25 09:25:12;;;;;;;1.50;1.40;;;;;;;10.75;100.00;100457.13;4973431;28;20026;-84
2023/12/25 09:27:38;;;;;;;1.70;1.60;;;;;;;10.88;100.00;100458.81;4974474;28;20033;-84
2023/12/25 09:30:04;;;;;;;1.90;1.70;;;;;;;10.89;100.00;100480.59;4974025;28;20023;-84
2023/12/25 09:32:30;;;;;;;2.50;1.80;;;;;;;11.07;100.00;100475.41;4990876;28;20026;-84
2023/12/25 09:34:55;;;;;;;1.40;1.25;;;;;;;11.24;100.00;100479.38;4984678;28;20503;-84
2023/12/25 09:37:23;;;;;;;1.30;1.10;;;;;;;11.37;100.00;100479.16;4974595;28;20062;-85
2023/12/25 09:39:48;;;;;;;2.75;1.50;;;;;;;11.44;100.00;100494.06;4970691;28;20023;-84
2023/12/25 09:42:14;;;;;;;1.35;1.25;;;;;;;11.45;100.00;100503.16;4994410;28;20051;-84
2023/12/25 09:44:39;;;;;;;2.90;1.50;;;;;;;11.45;100.00;100501.28;4958180;28;20065;-83
2023/12/25 09:47:06;;;;;;;2.10;1.50;;;;;;;11.51;100.00;100513.56;4973940;28;20039;-83
2023/12/25 09:49:35;;;;;;;3.55;1.27;;;;;;;11.49;100.00;100512.84;4970765;28;20027;-84
2023/12/25 09:52:02;;;;;;;4.47;1.95;;;;;;;11.54;100.00;100513.31;4970463;28;20378;-82
2023/12/25 09:54:27;;;;;;;1.90;1.00;;;;;;;11.54;100.00;100511.44;4973982;28;20039;-83
2023/12/25 09:56:55;;;;;;;2.20;1.20;;;;;;;11.55;100.00;100512.31;4956822;28;20243;-83
2023/12/25 09:59:21;;;;;;;1.45;1.10;;;;;;;11.54;100.00;100495.00;4965669;28;20021;-83
2023/12/25 10:01:48;;;;;;;0.80;0.80;;;;;;;11.55;100.00;100493.13;4989621;28;20031;-83
2023/12/25 10:04:14;;;;;;;1.17;1.08;;;;;;;11.55;100.00;100485.75;4970874;28;20031;-83
2023/12/25 10:06:42;;;;;;;1.65;1.00;;;;;;;11.59;100.00;100489.97;4972882;28;20038;-83
2023/12/25 10:09:09;;;;;;;1.20;1.10;;;;;;;11.54;100.00;100492.25;4973818;28;20034;-83
2023/12/25 10:11:34;;;;;;;0.80;0.80;;;;;;;11.62;100.00;100463.28;4973680;28;20026;-83
2023/12/25 10:14:02;;;;;;;1.02;1.00;;;;;;;11.54;100.00;100484.03;4973994;28;20030;-84
2023/12/25 10:16:28;;;;;;;1.40;1.00;;;;;;;11.65;100.00;100479.44;4957420;28;20029;-83
2023/12/25 10:18:55;;;;;;;1.77;1.00;;;;;;;11.62;100.00;100486.06;4973964;28;20041;-84
2023/12/25 10:21:21;;;;;;;0.80;0.80;;;;;;;11.64;100.00;100489.56;4969671;28;20433;-84
2023/12/25 10:23:48;;;;;;;1.30;1.15;;;;;;;11.65;100.00;100488.53;4972929;28;20023;-84
2023/12/25 10:26:25;;;;;;;1.20;1.10;;;;;;;11.64;100.00;100485.94;4989665;28;20456;-84
2023/12/25 10:28:51;;;;;;;1.30;1.05;;;;;;;11.58;100.00;100476.41;4976953;28;20508;-83
2023/12/25 10:31:26;;;;;;;1.17;1.08;;;;;;;11.66;100.00;100484.81;4958705;28;20032;-84
2023/12/25 10:33:58;;;;;;;2.78;1.20;;;;;;;11.66;100.00;100489.41;4984680;28;20437;-84
2023/12/25 10:36:25;;;;;;;2.47;1.00;;;;;;;11.65;100.00;100484.94;4973274;28;20031;-84
2023/12/25 10:38:50;;;;;;;1.77;1.30;;;;;;;11.67;100.00;100482.91;4972803;28;20026;-84
2023/12/25 10:41:24;;;;;;;1.27;1.10;;;;;;;11.65;100.00;100484.94;4994986;28;20054;-84
2023/12/25 10:43:57;;;;;;;1.33;1.23;;;;;;;11.73;100.00;100465.91;4973186;28;20023;-84
2023/12/25 10:46:23;;;;;;;;;;;;;;;11.29;100.00;100482.59;4967019;28;20113;-84
2023/12/25 10:48:50;;;;;;;1.83;1.27;;;;;;;10.96;100.00;100486.41;4975618;28;19916;-84
2023/12/25 10:51:23;;;;;;;2.78;1.58;;;;;;;10.93;100.00;100484.81;4977613;28;20037;-84
2023/12/25 10:53:49;;;;;;;1.83;1.20;;;;;;;10.87;100.00;100484.47;4971616;28;20019;-84
2023/12/25 10:56:19;;;;;;;1.00;0.90;;;;;;;10.79;100.00;100477.78;4971630;28;20366;-83
2023/12/25 10:58:48;;;;;;;0.80;0.73;;;;;;;10.72;100.00;100493.00;4973127;28;20496;-84
2023/12/25 11:01:15;;;;;;;0.73;0.73;;;;;;;10.75;100.00;100478.19;4987848;28;20105;-83
2023/12/25 11:03:41;;;;;;;0.75;0.70;;;;;;;10.75;100.00;100497.34;4988935;28;20030;-83
2023/12/25 11:06:07;;;;;;;0.95;0.47;;;;;;;10.68;100.00;100485.19;4989111;28;20038;-84
2023/12/25 11:08:32;;;;;;;1.88;0.40;;;;;;;10.63;100.00;100472.75;4972702;28;20027;-84
2023/12/25 11:10:58;;;;;;;3.70;0.57;;;;;;;10.59;100.00;100493.19;4988486;28;20556;-83